createdAt,value
2019-04-07T00:00:29.365Z,0
2019-04-07T00:01:29.059Z,0
2019-04-07T00:02:28.282Z,0
2019-04-07T00:03:29.047Z,0
2019-04-07T00:04:29.486Z,0
2019-04-07T00:05:29.058Z,0
2019-04-07T00:06:29.446Z,0
2019-04-07T00:07:28.815Z,0
2019-04-07T00:08:28.574Z,0
2019-04-07T00:09:28.658Z,0
2019-04-07T00:10:28.781Z,0
2019-04-07T00:11:29.055Z,0
2019-04-07T00:12:29.332Z,0
2019-04-07T00:13:28.374Z,0
2019-04-07T00:14:28.518Z,0
2019-04-07T00:15:29.047Z,0
2019-04-07T00:16:28.959Z,0
2019-04-07T00:17:29.127Z,0
2019-04-07T00:18:29.763Z,0
2019-04-07T00:19:28.296Z,0
2019-04-07T00:20:28.828Z,0
2019-04-07T00:21:29.192Z,0
2019-04-07T00:22:28.229Z,0
2019-04-07T00:23:28.521Z,0
2019-04-07T00:24:29.594Z,0
2019-04-07T00:25:28.783Z,0
2019-04-07T00:26:28.716Z,0
2019-04-07T00:27:28.524Z,0
2019-04-07T00:28:28.044Z,0
2019-04-07T00:29:28.907Z,0
2019-04-07T00:30:29.557Z,0
2019-04-07T00:31:28.917Z,0
2019-04-07T00:32:28.423Z,0
2019-04-07T00:33:30.990Z,0
2019-04-07T00:34:30.020Z,0
2019-04-07T00:35:40.027Z,0
2019-04-07T00:36:28.035Z,0
2019-04-07T00:37:28.586Z,0
2019-04-07T00:38:29.241Z,0
2019-04-07T00:39:28.609Z,0
2019-04-07T00:40:29.453Z,0
2019-04-07T00:41:28.765Z,0
2019-04-07T00:42:29.105Z,0
2019-04-07T00:43:29.201Z,0
2019-04-07T00:44:29.010Z,0
2019-04-07T00:45:28.475Z,0
2019-04-07T00:46:29.235Z,0
2019-04-07T00:47:28.579Z,0
2019-04-07T00:48:28.672Z,0
2019-04-07T00:49:28.200Z,0
2019-04-07T00:50:28.373Z,0
2019-04-07T00:51:28.290Z,0
2019-04-07T00:52:27.548Z,0
2019-04-07T00:53:28.891Z,0
2019-04-07T00:54:29.263Z,0
2019-04-07T00:55:29.619Z,0
2019-04-07T00:56:28.631Z,0
2019-04-07T00:57:28.743Z,0
2019-04-07T00:58:28.100Z,0
2019-04-07T00:59:28.629Z,0
2019-04-07T01:00:29.374Z,0
2019-04-07T01:01:27.608Z,0
2019-04-07T01:02:28.567Z,0
2019-04-07T01:03:29.049Z,0
2019-04-07T01:04:29.192Z,0
2019-04-07T01:05:43.532Z,0
2019-04-07T01:06:29.469Z,0
2019-04-07T01:07:28.504Z,0
2019-04-07T01:08:28.341Z,0
2019-04-07T01:09:28.749Z,0
2019-04-07T01:10:29.681Z,0
2019-04-07T01:11:27.867Z,0
2019-04-07T01:12:28.172Z,0
2019-04-07T01:13:28.619Z,0
2019-04-07T01:14:28.997Z,0
2019-04-07T01:15:29.295Z,0
2019-04-07T01:16:28.499Z,0
2019-04-07T01:17:27.175Z,0
2019-04-07T01:18:30.525Z,0
2019-04-07T01:19:27.861Z,0
2019-04-07T01:20:28.113Z,0
2019-04-07T01:21:27.956Z,0
2019-04-07T01:22:27.922Z,0
2019-04-07T01:23:28.390Z,0
2019-04-07T01:24:28.801Z,0
2019-04-07T01:25:27.981Z,0
2019-04-07T01:26:29.233Z,0
2019-04-07T01:27:28.569Z,0
2019-04-07T01:28:27.633Z,0
2019-04-07T01:29:28.284Z,0
2019-04-07T01:30:28.460Z,0
2019-04-07T01:31:27.593Z,0
2019-04-07T01:32:28.125Z,0
2019-04-07T01:33:28.894Z,0
2019-04-07T01:34:28.181Z,0
2019-04-07T01:35:27.992Z,0
2019-04-07T01:36:29.240Z,0
2019-04-07T01:37:27.629Z,0
2019-04-07T01:38:27.058Z,0
2019-04-07T01:39:28.318Z,0
2019-04-07T01:40:26.993Z,0
2019-04-07T01:41:27.811Z,0
2019-04-07T01:42:28.085Z,0
2019-04-07T01:43:27.958Z,0
2019-04-07T01:44:28.344Z,0
2019-04-07T01:45:29.084Z,0
2019-04-07T01:46:28.528Z,0
2019-04-07T01:47:27.700Z,0
2019-04-07T01:48:28.061Z,0
2019-04-07T01:49:28.749Z,0
2019-04-07T01:50:27.386Z,0
2019-04-07T01:51:28.437Z,0
2019-04-07T01:52:28.638Z,0
2019-04-07T01:53:28.021Z,0
2019-04-07T01:54:28.344Z,0
2019-04-07T01:55:28.426Z,0
2019-04-07T01:56:27.261Z,0
2019-04-07T01:57:28.914Z,0
2019-04-07T01:58:27.630Z,0
2019-04-07T01:59:26.812Z,0
2019-04-07T02:00:27.964Z,0
2019-04-07T02:01:27.386Z,0
2019-04-07T02:02:28.013Z,0
2019-04-07T02:03:27.878Z,0
2019-04-07T02:04:28.380Z,0
2019-04-07T02:05:27.701Z,0
2019-04-07T02:06:27.964Z,0
2019-04-07T02:07:27.258Z,0
2019-04-07T02:08:27.333Z,0
2019-04-07T02:09:27.927Z,0
2019-04-07T02:10:27.570Z,0
2019-04-07T02:11:26.805Z,0
2019-04-07T02:12:27.407Z,0
2019-04-07T02:13:27.595Z,0
2019-04-07T02:14:27.864Z,0
2019-04-07T02:15:28.184Z,0
2019-04-07T02:16:27.032Z,0
2019-04-07T02:17:27.594Z,0
2019-04-07T02:18:27.828Z,0
2019-04-07T02:19:27.787Z,0
2019-04-07T02:20:28.134Z,0
2019-04-07T02:21:27.454Z,0
2019-04-07T02:22:27.935Z,0
2019-04-07T02:23:28.163Z,0
2019-04-07T02:24:27.009Z,0
2019-04-07T02:25:27.504Z,0
2019-04-07T02:26:26.765Z,0
2019-04-07T02:27:26.772Z,0
2019-04-07T02:28:27.856Z,0
2019-04-07T02:29:27.105Z,0
2019-04-07T02:30:27.296Z,0
2019-04-07T02:31:28.059Z,0
2019-04-07T02:32:29.240Z,0
2019-04-07T02:33:30.997Z,0
2019-04-07T02:34:28.263Z,0
2019-04-07T02:35:28.026Z,0
2019-04-07T02:36:38.884Z,0
2019-04-07T02:37:27.915Z,0
2019-04-07T02:38:28.284Z,0
2019-04-07T02:39:29.436Z,0
2019-04-07T02:40:26.688Z,0
2019-04-07T02:41:27.566Z,0
2019-04-07T02:42:27.597Z,0
2019-04-07T02:43:27.661Z,0
2019-04-07T02:44:27.777Z,0
2019-04-07T02:45:27.012Z,0
2019-04-07T02:46:29.566Z,0
2019-04-07T02:47:27.985Z,0
2019-04-07T02:48:28.203Z,0
2019-04-07T02:49:26.824Z,0
2019-04-07T02:50:26.945Z,0
2019-04-07T02:51:27.398Z,0
2019-04-07T02:52:27.915Z,0
2019-04-07T02:53:27.013Z,0
2019-04-07T02:54:27.742Z,0
2019-04-07T02:55:26.882Z,0
2019-04-07T02:56:26.896Z,0
2019-04-07T02:57:27.101Z,0
2019-04-07T02:58:27.141Z,0
2019-04-07T02:59:27.844Z,0
2019-04-07T03:00:27.852Z,0
2019-04-07T03:01:29.645Z,0
2019-04-07T03:02:27.444Z,0
2019-04-07T03:03:27.608Z,0
2019-04-07T03:04:29.054Z,0
2019-04-07T03:05:26.991Z,0
2019-04-07T03:06:58.439Z,0
2019-04-07T03:07:27.485Z,0
2019-04-07T03:08:26.724Z,0
2019-04-07T03:09:26.648Z,0
2019-04-07T03:10:27.495Z,0
2019-04-07T03:11:27.646Z,0
2019-04-07T03:12:26.173Z,0
2019-04-07T03:13:26.883Z,0
2019-04-07T03:14:28.264Z,0
2019-04-07T03:15:27.506Z,0
2019-04-07T03:16:27.631Z,0
2019-04-07T03:17:25.800Z,0
2019-04-07T03:18:31.819Z,0
2019-04-07T03:19:27.840Z,0
2019-04-07T03:20:28.072Z,0
2019-04-07T03:21:27.368Z,0
2019-04-07T03:22:25.960Z,0
2019-04-07T03:23:26.980Z,0
2019-04-07T03:24:27.070Z,0
2019-04-07T03:25:26.405Z,0
2019-04-07T03:26:26.162Z,0
2019-04-07T03:27:27.129Z,0
2019-04-07T03:28:29.012Z,0
2019-04-07T03:29:26.895Z,0
2019-04-07T03:30:37.619Z,0
2019-04-07T03:31:36.272Z,0
2019-04-07T03:32:38.731Z,0
2019-04-07T03:33:40.401Z,0
2019-04-07T03:34:36.150Z,0
2019-04-07T03:35:38.310Z,0
2019-04-07T03:37:25.466Z,0
2019-04-07T03:37:55.559Z,0
2019-04-07T03:38:42.645Z,0
2019-04-07T03:39:41.046Z,0
2019-04-07T03:40:41.641Z,0
2019-04-07T03:41:42.508Z,0
2019-04-07T03:42:41.790Z,0
2019-04-07T03:43:40.660Z,0
2019-04-07T03:44:41.257Z,0
2019-04-07T03:45:41.357Z,0
2019-04-07T03:46:41.153Z,0
2019-04-07T03:47:40.045Z,0
2019-04-07T03:48:44.488Z,0
2019-04-07T03:49:43.804Z,0
2019-04-07T03:50:41.905Z,0
2019-04-07T03:51:41.929Z,0
2019-04-07T03:52:40.466Z,0
2019-04-07T03:53:42.151Z,0
2019-04-07T03:54:43.267Z,0
2019-04-07T03:55:41.018Z,0
2019-04-07T03:56:42.169Z,0
2019-04-07T03:57:41.437Z,0
2019-04-07T03:58:42.902Z,0
2019-04-07T03:59:41.205Z,0
2019-04-07T04:00:42.235Z,0
2019-04-07T04:01:41.507Z,0
2019-04-07T04:02:44.242Z,0
2019-04-07T04:03:41.041Z,0
2019-04-07T04:04:41.938Z,0
2019-04-07T04:05:41.771Z,0
2019-04-07T04:06:42.012Z,0
2019-04-07T04:07:47.211Z,0
2019-04-07T04:08:44.210Z,0
2019-04-07T04:09:45.543Z,0
2019-04-07T04:10:39.480Z,0
2019-04-07T04:11:40.507Z,0
2019-04-07T04:12:40.498Z,0
2019-04-07T04:13:41.095Z,0
2019-04-07T04:14:42.979Z,0
2019-04-07T04:15:41.954Z,0
2019-04-07T04:16:40.338Z,0
2019-04-07T04:17:41.008Z,0
2019-04-07T04:18:40.567Z,0
2019-04-07T04:19:40.889Z,0
2019-04-07T04:20:40.781Z,0
2019-04-07T04:21:41.196Z,0
2019-04-07T04:22:43.104Z,0
2019-04-07T04:23:44.842Z,0
2019-04-07T04:24:43.616Z,0
2019-04-07T04:25:40.925Z,0
2019-04-07T04:26:40.758Z,0
2019-04-07T04:27:41.931Z,0
2019-04-07T04:28:40.688Z,0
2019-04-07T04:29:41.428Z,0
2019-04-07T04:30:39.875Z,0
2019-04-07T04:31:40.291Z,5
2019-04-07T04:32:41.815Z,5
2019-04-07T04:33:40.615Z,5
2019-04-07T04:34:41.012Z,5
2019-04-07T04:35:39.698Z,5
2019-04-07T04:36:40.315Z,5
2019-04-07T04:37:59.816Z,5
2019-04-07T04:38:40.270Z,5
2019-04-07T04:39:41.155Z,10
2019-04-07T04:40:40.821Z,10
2019-04-07T04:41:41.073Z,10
2019-04-07T04:42:40.976Z,10
2019-04-07T04:43:39.504Z,10
2019-04-07T04:44:40.264Z,15
2019-04-07T04:45:39.176Z,15
2019-04-07T04:46:40.735Z,15
2019-04-07T04:47:41.282Z,15
2019-04-07T04:48:41.129Z,15
2019-04-07T04:49:41.678Z,20
2019-04-07T04:50:41.690Z,20
2019-04-07T04:51:46.800Z,20
2019-04-07T04:52:39.236Z,20
2019-04-07T04:53:40.562Z,20
2019-04-07T04:54:40.768Z,25
2019-04-07T04:55:40.441Z,25
2019-04-07T04:56:39.904Z,25
2019-04-07T04:57:40.392Z,25
2019-04-07T04:58:40.802Z,30
2019-04-07T04:59:42.111Z,30
2019-04-07T05:00:39.304Z,30
2019-04-07T05:01:40.908Z,30
2019-04-07T05:02:41.264Z,30
2019-04-07T05:03:39.592Z,35
2019-04-07T05:04:39.808Z,35
2019-04-07T05:05:41.459Z,35
2019-04-07T05:06:39.379Z,35
2019-04-07T05:08:04.315Z,40
2019-04-07T05:08:40.413Z,40
2019-04-07T05:10:01.263Z,40
2019-04-07T05:10:39.625Z,40
2019-04-07T05:11:39.482Z,45
2019-04-07T05:12:39.263Z,45
2019-04-07T05:13:38.928Z,45
2019-04-07T05:14:39.218Z,45
2019-04-07T05:15:40.259Z,50
2019-04-07T05:16:39.962Z,50
2019-04-07T05:17:39.370Z,50
2019-04-07T05:18:39.542Z,50
2019-04-07T05:19:42.448Z,50
2019-04-07T05:20:40.010Z,55
2019-04-07T05:21:39.385Z,55
2019-04-07T05:22:39.455Z,55
2019-04-07T05:23:39.580Z,55
2019-04-07T05:24:40.117Z,60
2019-04-07T05:25:40.352Z,60
2019-04-07T05:26:40.495Z,60
2019-04-07T05:27:39.184Z,60
2019-04-07T05:28:45.030Z,60
2019-04-07T05:29:39.054Z,65
2019-04-07T05:30:39.193Z,65
2019-04-07T05:31:40.089Z,65
2019-04-07T05:32:39.837Z,65
2019-04-07T05:33:39.928Z,65
2019-04-07T05:34:39.042Z,70
2019-04-07T05:35:40.439Z,70
2019-04-07T05:36:40.096Z,70
2019-04-07T05:37:39.378Z,70
2019-04-07T05:38:39.507Z,70
2019-04-07T05:39:39.556Z,75
2019-04-07T05:40:39.942Z,75
2019-04-07T05:41:39.704Z,75
2019-04-07T05:42:39.020Z,75
2019-04-07T05:43:39.347Z,75
2019-04-07T05:44:39.772Z,75
2019-04-07T05:45:43.350Z,80
2019-04-07T05:46:44.029Z,80
2019-04-07T05:47:43.134Z,80
2019-04-07T05:48:39.494Z,80
2019-04-07T05:49:39.281Z,80
2019-04-07T05:50:39.659Z,80
2019-04-07T05:51:41.407Z,85
2019-04-07T05:52:45.709Z,85
2019-04-07T05:53:38.737Z,85
2019-04-07T05:54:40.395Z,85
2019-04-07T05:55:39.397Z,85
2019-04-07T05:56:39.352Z,85
2019-04-07T05:57:44.140Z,85
2019-04-07T05:58:44.976Z,90
2019-04-07T05:59:39.857Z,90
2019-04-07T06:00:39.160Z,90
2019-04-07T06:01:39.238Z,90
2019-04-07T06:02:43.992Z,90
2019-04-07T06:03:44.112Z,90
2019-04-07T06:04:39.389Z,90
2019-04-07T06:05:39.743Z,95
2019-04-07T06:06:42.365Z,95
2019-04-07T06:07:44.590Z,95
2019-04-07T06:08:50.688Z,95
2019-04-07T06:09:41.407Z,95
2019-04-07T06:10:41.141Z,95
2019-04-07T06:11:43.328Z,95
2019-04-07T06:12:43.957Z,95
2019-04-07T06:13:39.307Z,95
2019-04-07T06:14:38.848Z,95
2019-04-07T06:15:38.323Z,100
2019-04-07T06:16:37.889Z,100
2019-04-07T06:17:39.870Z,100
2019-04-07T06:18:42.144Z,100
2019-04-07T06:19:44.385Z,100
2019-04-07T06:20:38.034Z,105
2019-04-07T06:21:39.027Z,105
2019-04-07T06:22:38.768Z,100
2019-04-07T06:23:41.131Z,100
2019-04-07T06:24:42.999Z,100
2019-04-07T06:25:50.092Z,105
2019-04-07T06:26:42.039Z,105
2019-04-07T06:27:44.773Z,105
2019-04-07T06:28:38.059Z,105
2019-04-07T06:29:38.948Z,105
2019-04-07T06:30:43.963Z,105
2019-04-07T06:31:42.418Z,105
2019-04-07T06:32:43.685Z,105
2019-04-07T06:33:42.989Z,105
2019-04-07T06:34:40.946Z,105
2019-04-07T06:35:39.025Z,105
2019-04-07T06:36:39.944Z,110
2019-04-07T06:37:39.792Z,115
2019-04-07T06:38:56.264Z,115
2019-04-07T06:39:41.582Z,120
2019-04-07T06:40:40.272Z,125
2019-04-07T06:41:42.182Z,140
2019-04-07T06:42:44.694Z,160
2019-04-07T06:43:42.430Z,155
2019-04-07T06:44:38.511Z,160
2019-04-07T06:45:38.656Z,160
2019-04-07T06:46:38.052Z,165
2019-04-07T06:47:42.264Z,170
2019-04-07T06:48:41.532Z,190
2019-04-07T06:49:44.609Z,210
2019-04-07T06:51:00.737Z,200
2019-04-07T06:51:41.360Z,190
2019-04-07T06:52:46.679Z,185
2019-04-07T06:53:37.237Z,180
2019-04-07T06:54:37.762Z,180
2019-04-07T06:55:41.843Z,210
2019-04-07T06:56:43.611Z,210
2019-04-07T06:57:40.857Z,205
2019-04-07T06:58:43.788Z,190
2019-04-07T06:59:38.448Z,165
2019-04-07T07:00:37.674Z,155
2019-04-07T07:01:38.642Z,150
2019-04-07T07:02:40.703Z,145
2019-04-07T07:03:44.393Z,140
2019-04-07T07:04:41.513Z,140
2019-04-07T07:05:46.271Z,140
2019-04-07T07:06:38.533Z,135
2019-04-07T07:07:38.936Z,135
2019-04-07T07:08:57.273Z,135
2019-04-07T07:09:41.675Z,135
2019-04-07T07:10:50.411Z,135
2019-04-07T07:11:47.632Z,130
2019-04-07T07:12:48.648Z,135
2019-04-07T07:13:48.878Z,130
2019-04-07T07:14:52.892Z,130
2019-04-07T07:15:42.842Z,130
2019-04-07T07:16:41.065Z,130
2019-04-07T07:17:38.884Z,130
2019-04-07T07:18:39.303Z,130
2019-04-07T07:19:39.950Z,130
2019-04-07T07:20:40.392Z,130
2019-04-07T07:21:45.074Z,130
2019-04-07T07:22:40.892Z,135
2019-04-07T07:23:37.443Z,135
2019-04-07T07:24:37.969Z,135
2019-04-07T07:25:42.264Z,135
2019-04-07T07:26:42.916Z,135
2019-04-07T07:27:42.000Z,135
2019-04-07T07:28:37.874Z,135
2019-04-07T07:29:38.696Z,135
2019-04-07T07:30:38.370Z,135
2019-04-07T07:31:37.321Z,135
2019-04-07T07:32:44.100Z,135
2019-04-07T07:33:42.596Z,135
2019-04-07T07:34:41.253Z,135
2019-04-07T07:35:37.656Z,135
2019-04-07T07:36:38.460Z,135
2019-04-07T07:37:38.840Z,135
2019-04-07T07:38:53.790Z,135
2019-04-07T07:39:41.822Z,135
2019-04-07T07:40:39.674Z,135
2019-04-07T07:41:38.981Z,135
2019-04-07T07:42:37.960Z,135
2019-04-07T07:43:39.360Z,135
2019-04-07T07:44:43.854Z,135
2019-04-07T07:45:38.333Z,135
2019-04-07T07:46:38.789Z,135
2019-04-07T07:47:37.311Z,135
2019-04-07T07:48:40.003Z,135
2019-04-07T07:49:47.010Z,135
2019-04-07T07:50:43.429Z,135
2019-04-07T07:51:44.483Z,135
2019-04-07T07:52:36.639Z,135
2019-04-07T07:53:39.550Z,140
2019-04-07T07:54:39.929Z,140
2019-04-07T07:55:42.713Z,140
2019-04-07T07:56:41.421Z,140
2019-04-07T07:57:37.970Z,140
2019-04-07T07:58:41.973Z,140
2019-04-07T07:59:47.283Z,140
2019-04-07T08:00:43.455Z,140
2019-04-07T08:01:38.751Z,140
2019-04-07T08:02:40.206Z,140
2019-04-07T08:03:37.782Z,140
2019-04-07T08:04:38.954Z,140
2019-04-07T08:05:43.374Z,135
2019-04-07T08:06:42.533Z,135
2019-04-07T08:07:38.912Z,135
2019-04-07T08:08:37.989Z,135
2019-04-07T08:09:38.012Z,135
2019-04-07T08:10:38.179Z,140
2019-04-07T08:11:42.446Z,130
2019-04-07T08:12:42.003Z,135
2019-04-07T08:13:46.688Z,130
2019-04-07T08:14:37.495Z,125
2019-04-07T08:15:42.536Z,135
2019-04-07T08:16:42.503Z,135
2019-04-07T08:17:42.058Z,135
2019-04-07T08:18:43.755Z,135
2019-04-07T08:19:46.617Z,140
2019-04-07T08:20:38.618Z,135
2019-04-07T08:21:38.076Z,135
2019-04-07T08:22:51.509Z,135
2019-04-07T08:23:37.517Z,135
2019-04-07T08:24:37.634Z,135
2019-04-07T08:25:37.826Z,140
2019-04-07T08:26:39.225Z,155
2019-04-07T08:27:42.168Z,180
2019-04-07T08:28:40.573Z,155
2019-04-07T08:29:42.247Z,150
2019-04-07T08:30:37.144Z,165
2019-04-07T08:31:37.314Z,175
2019-04-07T08:32:41.399Z,185
2019-04-07T08:33:41.025Z,185
2019-04-07T08:34:41.516Z,185
2019-04-07T08:35:43.555Z,175
2019-04-07T08:36:38.058Z,180
2019-04-07T08:37:38.245Z,185
2019-04-07T08:38:40.051Z,205
2019-04-07T08:39:44.627Z,230
2019-04-07T08:40:41.678Z,220
2019-04-07T08:41:39.099Z,215
2019-04-07T08:42:38.997Z,185
2019-04-07T08:43:38.612Z,170
2019-04-07T08:44:39.383Z,165
2019-04-07T08:45:42.466Z,160
2019-04-07T08:46:46.765Z,155
2019-04-07T08:47:38.129Z,150
2019-04-07T08:48:38.635Z,150
2019-04-07T08:49:41.617Z,155
2019-04-07T08:50:39.927Z,165
2019-04-07T08:51:42.054Z,170
2019-04-07T08:52:40.006Z,180
2019-04-07T08:53:36.375Z,190
2019-04-07T08:54:37.739Z,175
2019-04-07T08:55:36.989Z,170
2019-04-07T08:56:39.118Z,170
2019-04-07T08:57:40.076Z,175
2019-04-07T08:58:45.731Z,170
2019-04-07T08:59:41.812Z,175
2019-04-07T09:00:37.289Z,170
2019-04-07T09:01:40.448Z,165
2019-04-07T09:02:39.472Z,160
2019-04-07T09:03:36.087Z,155
2019-04-07T09:04:37.003Z,155
2019-04-07T09:05:41.277Z,160
2019-04-07T09:06:38.700Z,165
2019-04-07T09:07:41.108Z,180
2019-04-07T09:08:42.466Z,205
2019-04-07T09:09:54.620Z,225
2019-04-07T09:10:40.567Z,220
2019-04-07T09:11:40.234Z,225
2019-04-07T09:12:40.696Z,235
2019-04-07T09:13:41.428Z,240
2019-04-07T09:14:41.810Z,250
2019-04-07T09:15:39.076Z,235
2019-04-07T09:16:36.916Z,245
2019-04-07T09:17:52.220Z,260
2019-04-07T09:18:37.368Z,265
2019-04-07T09:19:41.635Z,285
2019-04-07T09:20:40.215Z,270
2019-04-07T09:21:55.856Z,295
2019-04-07T09:22:40.670Z,320
2019-04-07T09:23:39.123Z,330
2019-04-07T09:24:41.613Z,345
2019-04-07T09:25:44.778Z,335
2019-04-07T09:26:40.512Z,325
2019-04-07T09:27:36.438Z,320
2019-04-07T09:28:36.721Z,335
2019-04-07T09:29:38.954Z,330
2019-04-07T09:30:36.786Z,310
2019-04-07T09:31:38.752Z,300
2019-04-07T09:32:37.046Z,270
2019-04-07T09:33:41.939Z,260
2019-04-07T09:34:38.015Z,265
2019-04-07T09:35:37.654Z,250
2019-04-07T09:36:38.904Z,240
2019-04-07T09:37:37.762Z,225
2019-04-07T09:38:36.857Z,205
2019-04-07T09:40:05.652Z,185
2019-04-07T09:40:37.146Z,185
2019-04-07T09:41:41.594Z,165
2019-04-07T09:42:36.031Z,150
2019-04-07T09:43:40.512Z,140
2019-04-07T09:44:42.652Z,150
2019-04-07T09:45:38.493Z,140
2019-04-07T09:46:36.611Z,140
2019-04-07T09:47:37.091Z,140
2019-04-07T09:48:39.027Z,130
2019-04-07T09:49:36.707Z,125
2019-04-07T09:50:39.529Z,125
2019-04-07T09:51:41.310Z,125
2019-04-07T09:52:37.016Z,125
2019-04-07T09:53:38.196Z,125
2019-04-07T09:54:35.931Z,135
2019-04-07T09:55:38.211Z,135
2019-04-07T09:56:40.774Z,130
2019-04-07T09:57:40.946Z,125
2019-04-07T09:58:41.523Z,155
2019-04-07T09:59:36.020Z,140
2019-04-07T10:00:37.617Z,160
2019-04-07T10:01:38.944Z,135
2019-04-07T10:02:43.706Z,140
2019-04-07T10:03:40.086Z,135
2019-04-07T10:04:42.416Z,135
2019-04-07T10:05:40.133Z,135
2019-04-07T10:06:39.036Z,145
2019-04-07T10:07:40.184Z,145
2019-04-07T10:08:36.314Z,140
2019-04-07T10:09:36.842Z,135
2019-04-07T10:10:39.832Z,135
2019-04-07T10:11:37.375Z,145
2019-04-07T10:12:39.409Z,140
2019-04-07T10:13:36.467Z,160
2019-04-07T10:14:37.623Z,140
2019-04-07T10:15:36.435Z,140
2019-04-07T10:16:41.945Z,135
2019-04-07T10:17:37.217Z,135
2019-04-07T10:18:37.040Z,135
2019-04-07T10:19:37.581Z,130
2019-04-07T10:20:36.815Z,130
2019-04-07T10:21:36.084Z,130
2019-04-07T10:22:37.386Z,130
2019-04-07T10:23:37.511Z,135
2019-04-07T10:24:37.119Z,140
2019-04-07T10:25:39.192Z,145
2019-04-07T10:26:39.111Z,145
2019-04-07T10:27:36.826Z,150
2019-04-07T10:28:36.595Z,150
2019-04-07T10:29:36.619Z,170
2019-04-07T10:30:38.128Z,200
2019-04-07T10:31:37.783Z,230
2019-04-07T10:32:39.529Z,250
2019-04-07T10:33:36.753Z,285
2019-04-07T10:34:36.403Z,285
2019-04-07T10:35:35.995Z,280
2019-04-07T10:36:36.384Z,245
2019-04-07T10:37:36.913Z,255
2019-04-07T10:38:36.397Z,235
2019-04-07T10:39:36.865Z,280
2019-04-07T10:40:35.721Z,275
2019-04-07T10:41:38.102Z,295
2019-04-07T10:42:35.962Z,330
2019-04-07T10:43:36.391Z,320
2019-04-07T10:44:38.149Z,330
2019-04-07T10:45:38.093Z,315
2019-04-07T10:46:37.498Z,275
2019-04-07T10:47:38.369Z,255
2019-04-07T10:48:36.672Z,250
2019-04-07T10:49:37.998Z,260
2019-04-07T10:50:37.927Z,255
2019-04-07T10:51:36.875Z,225
2019-04-07T10:52:37.068Z,210
2019-04-07T10:53:40.520Z,205
2019-04-07T10:54:36.978Z,215
2019-04-07T10:55:37.906Z,215
2019-04-07T10:56:37.340Z,200
2019-04-07T10:57:37.901Z,200
2019-04-07T10:58:35.824Z,175
2019-04-07T10:59:36.911Z,195
2019-04-07T11:00:36.741Z,175
2019-04-07T11:01:37.875Z,170
2019-04-07T11:02:36.467Z,180
2019-04-07T11:03:36.208Z,175
2019-04-07T11:04:36.407Z,145
2019-04-07T11:05:36.292Z,150
2019-04-07T11:06:36.456Z,160
2019-04-07T11:07:37.177Z,160
2019-04-07T11:08:37.536Z,155
2019-04-07T11:09:37.744Z,155
2019-04-07T11:10:48.424Z,150
2019-04-07T11:11:36.293Z,135
2019-04-07T11:12:36.679Z,130
2019-04-07T11:13:37.320Z,155
2019-04-07T11:14:36.580Z,140
2019-04-07T11:15:36.176Z,155
2019-04-07T11:16:37.689Z,155
2019-04-07T11:17:36.212Z,160
2019-04-07T11:18:37.073Z,155
2019-04-07T11:19:40.118Z,140
2019-04-07T11:20:36.280Z,145
2019-04-07T11:21:36.306Z,135
2019-04-07T11:22:40.147Z,125
2019-04-07T11:23:37.369Z,130
2019-04-07T11:24:39.816Z,140
2019-04-07T11:25:37.179Z,140
2019-04-07T11:26:36.438Z,145
2019-04-07T11:27:36.672Z,150
2019-04-07T11:28:39.048Z,130
2019-04-07T11:29:39.580Z,140
2019-04-07T11:30:36.524Z,125
2019-04-07T11:31:38.467Z,145
2019-04-07T11:32:36.044Z,145
2019-04-07T11:33:37.238Z,145
2019-04-07T11:34:35.610Z,145
2019-04-07T11:35:40.079Z,135
2019-04-07T11:36:37.398Z,135
2019-04-07T11:37:36.494Z,150
2019-04-07T11:38:38.521Z,140
2019-04-07T11:39:36.312Z,140
2019-04-07T11:40:53.441Z,135
2019-04-07T11:41:40.253Z,135
2019-04-07T11:42:35.811Z,135
2019-04-07T11:43:35.907Z,135
2019-04-07T11:44:36.388Z,130
2019-04-07T11:45:37.678Z,130
2019-04-07T11:46:37.478Z,145
2019-04-07T11:47:37.061Z,140
2019-04-07T11:48:35.634Z,140
2019-04-07T11:49:37.556Z,145
2019-04-07T11:50:36.697Z,130
2019-04-07T11:51:36.845Z,145
2019-04-07T11:52:37.689Z,145
2019-04-07T11:53:35.515Z,140
2019-04-07T11:54:38.170Z,135
2019-04-07T11:55:39.144Z,155
2019-04-07T11:56:37.120Z,170
2019-04-07T11:57:41.077Z,170
2019-04-07T11:58:44.238Z,165
2019-04-07T11:59:37.758Z,165
2019-04-07T12:00:41.952Z,160
2019-04-07T12:01:36.376Z,165
2019-04-07T12:02:37.353Z,165
2019-04-07T12:03:39.830Z,160
2019-04-07T12:04:38.729Z,145
2019-04-07T12:05:36.624Z,160
2019-04-07T12:06:36.327Z,180
2019-04-07T12:07:35.790Z,180
2019-04-07T12:08:44.505Z,165
2019-04-07T12:09:36.799Z,160
2019-04-07T12:10:37.640Z,155
2019-04-07T12:11:36.693Z,155
2019-04-07T12:12:37.365Z,135
2019-04-07T12:13:38.626Z,145
2019-04-07T12:14:36.461Z,135
2019-04-07T12:15:38.797Z,135
2019-04-07T12:16:41.249Z,135
2019-04-07T12:17:41.383Z,125
2019-04-07T12:18:36.500Z,125
2019-04-07T12:19:36.878Z,125
2019-04-07T12:20:42.007Z,120
2019-04-07T12:21:41.978Z,115
2019-04-07T12:22:36.159Z,115
2019-04-07T12:23:40.113Z,135
2019-04-07T12:24:38.027Z,125
2019-04-07T12:25:40.220Z,140
2019-04-07T12:26:42.376Z,130
2019-04-07T12:27:37.668Z,145
2019-04-07T12:28:37.560Z,155
2019-04-07T12:29:36.698Z,195
2019-04-07T12:30:36.913Z,205
2019-04-07T12:31:37.261Z,200
2019-04-07T12:32:37.974Z,175
2019-04-07T12:33:42.077Z,170
2019-04-07T12:34:35.721Z,160
2019-04-07T12:35:38.868Z,170
2019-04-07T12:36:41.867Z,185
2019-04-07T12:37:42.256Z,200
2019-04-07T12:38:38.087Z,210
2019-04-07T12:39:38.841Z,200
2019-04-07T12:40:37.697Z,170
2019-04-07T12:41:41.410Z,165
2019-04-07T12:42:38.474Z,150
2019-04-07T12:43:36.439Z,145
2019-04-07T12:44:36.298Z,145
2019-04-07T12:45:38.460Z,130
2019-04-07T12:46:36.437Z,130
2019-04-07T12:47:35.476Z,140
2019-04-07T12:48:41.063Z,130
2019-04-07T12:49:46.929Z,135
2019-04-07T12:50:36.969Z,125
2019-04-07T12:51:37.534Z,120
2019-04-07T12:52:40.909Z,120
2019-04-07T12:53:42.168Z,120
2019-04-07T12:54:37.544Z,120
2019-04-07T12:55:37.543Z,120
2019-04-07T12:56:39.157Z,120
2019-04-07T12:57:42.526Z,120
2019-04-07T12:58:35.547Z,125
2019-04-07T12:59:37.486Z,130
2019-04-07T13:00:59.173Z,135
2019-04-07T13:01:35.280Z,140
2019-04-07T13:02:38.112Z,160
2019-04-07T13:03:36.454Z,140
2019-04-07T13:04:36.735Z,135
2019-04-07T13:05:41.066Z,130
2019-04-07T13:06:37.543Z,130
2019-04-07T13:07:37.750Z,135
2019-04-07T13:08:38.160Z,135
2019-04-07T13:09:41.866Z,125
2019-04-07T13:10:41.698Z,125
2019-04-07T13:11:55.898Z,125
2019-04-07T13:12:38.495Z,125
2019-04-07T13:13:43.808Z,140
2019-04-07T13:14:41.164Z,160
2019-04-07T13:15:39.977Z,180
2019-04-07T13:16:37.878Z,205
2019-04-07T13:17:43.441Z,230
2019-04-07T13:18:43.654Z,235
2019-04-07T13:19:35.665Z,240
2019-04-07T13:20:34.454Z,245
2019-04-07T13:21:35.809Z,250
2019-04-07T13:22:39.486Z,255
2019-04-07T13:23:39.706Z,265
2019-04-07T13:24:51.100Z,275
2019-04-07T13:25:37.458Z,285
2019-04-07T13:26:41.311Z,290
2019-04-07T13:27:41.551Z,280
2019-04-07T13:28:37.115Z,270
2019-04-07T13:29:35.909Z,260
2019-04-07T13:30:37.388Z,255
2019-04-07T13:31:36.566Z,230
2019-04-07T13:33:01.700Z,215
2019-04-07T13:33:41.275Z,210
2019-04-07T13:34:38.042Z,215
2019-04-07T13:35:34.565Z,240
2019-04-07T13:36:37.641Z,250
2019-04-07T13:37:35.886Z,245
2019-04-07T13:38:37.084Z,235
2019-04-07T13:39:45.154Z,220
2019-04-07T13:40:36.831Z,215
2019-04-07T13:42:00.308Z,195
2019-04-07T13:42:38.895Z,185
2019-04-07T13:43:41.007Z,165
2019-04-07T13:44:41.639Z,155
2019-04-07T13:45:36.796Z,155
2019-04-07T13:46:46.910Z,160
2019-04-07T13:47:43.526Z,175
2019-04-07T13:48:35.786Z,195
2019-04-07T13:49:41.321Z,220
2019-04-07T13:50:40.553Z,240
2019-04-07T13:51:36.512Z,240
2019-04-07T13:52:37.165Z,220
2019-04-07T13:53:39.239Z,200
2019-04-07T13:54:40.487Z,185
2019-04-07T13:55:39.198Z,180
2019-04-07T13:56:36.830Z,180
2019-04-07T13:57:37.071Z,180
2019-04-07T13:58:41.455Z,185
2019-04-07T13:59:39.157Z,185
2019-04-07T14:00:36.898Z,185
2019-04-07T14:01:41.102Z,175
2019-04-07T14:02:41.069Z,185
2019-04-07T14:03:38.114Z,200
2019-04-07T14:04:39.547Z,195
2019-04-07T14:05:40.126Z,190
2019-04-07T14:06:36.116Z,175
2019-04-07T14:07:38.363Z,170
2019-04-07T14:08:38.662Z,170